Kingston, Idaho
Current Conditions -  °F | °C
As of 2:53 AM on Friday 31 Oct 2014 (Local Time) from KMLP Reporting Station
Clear Clear  
Wind Chill: 35°   Ceiling: Unl
Heat Index: 41°   Visibility: 10mi
Dew Point: 35°   Wind: 9mph
Humidity: 79%   Direction: 160°SSE
Pressure: 29.87"   Gusts: 17mph
Location:  47.55°N, 116.27°W
Report Text: KMLP 310953Z AUTO 16008G15KT 10SM CLR 05/02 A2987 RMK AO2 SLP067 T00500017
Loading
Personal Weather Stations






























Interactive Weather Map
Tropical Storm Tracking
New forecast layout! Learn more

10-Day Weather Forecast

Advertisements
Track Severe Weather on mobile